Time;durP1;ratioP1;P1;durP2;ratioP2;P2;SDS_P1;SDS_P2;PMS_P1;PMS_P2;Temp;Humidity;BMP_temperature;BMP_pressure;BME280_temperature;BME280_humidity;BME280_pressure;Samples;Min_cycle;Max_cycle;Signal;HPM_P1;HPM_P2
2023/02/27 00:01:58;;;;;;;6.03;2.80;;;0.70;1.00;;;;;;5042380;28;20251;-56
2023/02/27 00:04:24;;;;;;;5.90;3.53;;;0.80;1.00;;;;;;5045144;28;20183;-54
2023/02/27 00:06:49;;;;;;;3.00;2.70;;;0.70;1.00;;;;;;5043513;28;20458;-54
2023/02/27 00:09:15;;;;;;;4.60;3.50;;;0.70;1.00;;;;;;5045036;28;20201;-55
2023/02/27 00:11:42;;;;;;;5.37;4.00;;;0.60;1.00;;;;;;5044158;28;20700;-53
2023/02/27 00:14:08;;;;;;;5.87;2.90;;;0.60;1.00;;;;;;5044017;28;20221;-54
2023/02/27 00:16:33;;;;;;;6.87;3.60;;;0.50;1.00;;;;;;5041897;28;20447;-53
2023/02/27 00:19:01;;;;;;;5.00;2.93;;;0.60;1.00;;;;;;5043880;28;20995;-54
2023/02/27 00:21:26;;;;;;;3.27;2.50;;;0.60;1.00;;;;;;5041985;28;20798;-57
2023/02/27 00:23:52;;;;;;;6.30;3.90;;;0.40;1.00;;;;;;5043327;28;20449;-54
2023/02/27 00:26:18;;;;;;;6.03;2.73;;;0.50;1.00;;;;;;5043036;28;20193;-55
2023/02/27 00:28:43;;;;;;;5.20;2.33;;;0.40;1.00;;;;;;5045216;28;20313;-53
2023/02/27 00:31:09;;;;;;;4.40;2.90;;;0.40;1.00;;;;;;5044527;28;20205;-52
2023/02/27 00:33:35;;;;;;;7.20;2.60;;;0.40;1.00;;;;;;5043518;28;20285;-53
2023/02/27 00:36:02;;;;;;;6.27;2.60;;;0.50;1.00;;;;;;5041096;28;20246;-54
2023/02/27 00:38:28;;;;;;;2.83;2.50;;;0.50;1.00;;;;;;5046515;28;20254;-53
2023/02/27 00:40:53;;;;;;;3.90;2.20;;;0.50;1.00;;;;;;5049597;28;20456;-57
2023/02/27 00:43:20;;;;;;;4.33;2.40;;;0.60;1.00;;;;;;5042357;28;20985;-54
2023/02/27 00:45:47;;;;;;;2.53;1.97;;;0.50;1.00;;;;;;5040964;28;20205;-51
2023/02/27 00:48:13;;;;;;;3.63;2.63;;;0.50;1.00;;;;;;5044553;28;20443;-53
2023/02/27 00:50:38;;;;;;;4.50;2.27;;;0.50;1.00;;;;;;5044999;28;20453;-58
2023/02/27 00:53:04;;;;;;;6.43;2.47;;;0.50;1.00;;;;;;5042992;28;20269;-55
2023/02/27 00:55:30;;;;;;;3.20;2.37;;;0.50;1.00;;;;;;5045366;28;20218;-54
2023/02/27 00:57:55;;;;;;;2.90;2.20;;;0.50;1.00;;;;;;5045331;28;20214;-55
2023/02/27 01:00:21;;;;;;;6.73;2.57;;;0.50;1.00;;;;;;5047654;28;20240;-51
2023/02/27 01:02:47;;;;;;;4.07;2.90;;;0.50;1.00;;;;;;5043341;28;20209;-54
2023/02/27 01:05:13;;;;;;;2.93;2.13;;;0.50;1.00;;;;;;5044706;28;20482;-52
2023/02/27 01:07:39;;;;;;;6.60;2.40;;;0.60;1.00;;;;;;5047553;28;20187;-54
2023/02/27 01:10:06;;;;;;;3.13;2.40;;;0.50;1.00;;;;;;5044373;28;20460;-54
2023/02/27 01:12:32;;;;;;;4.30;2.30;;;0.50;1.00;;;;;;5045218;28;21151;-55
2023/02/27 01:14:57;;;;;;;3.63;2.23;;;0.50;1.00;;;;;;5048420;28;20457;-54
2023/02/27 01:17:23;;;;;;;2.20;1.80;;;0.60;1.00;;;;;;5049152;28;20205;-51
2023/02/27 01:19:49;;;;;;;2.30;1.93;;;0.50;1.00;;;;;;5050780;28;20183;-54
2023/02/27 01:22:15;;;;;;;4.00;2.13;;;0.50;1.00;;;;;;5047229;28;20270;-55
2023/02/27 01:24:40;;;;;;;5.10;2.30;;;0.50;1.00;;;;;;5047401;28;20835;-53
2023/02/27 01:27:06;;;;;;;5.30;2.40;;;0.50;1.00;;;;;;5039584;28;20197;-55
2023/02/27 01:29:32;;;;;;;4.00;2.50;;;0.40;1.00;;;;;;5040277;28;20241;-54
2023/02/27 01:31:57;;;;;;;6.80;2.43;;;0.40;1.00;;;;;;5040247;28;20254;-54
2023/02/27 01:34:23;;;;;;;2.50;1.97;;;0.40;1.00;;;;;;5038141;28;20183;-52
2023/02/27 01:36:48;;;;;;;5.17;2.20;;;0.40;1.00;;;;;;5036978;28;20226;-53
2023/02/27 01:39:14;;;;;;;4.60;2.53;;;0.30;1.00;;;;;;5038793;28;20186;-54
2023/02/27 01:41:40;;;;;;;1.93;1.70;;;0.40;1.00;;;;;;5038730;28;20199;-53
2023/02/27 01:44:11;;;;;;;6.80;2.63;;;0.40;1.00;;;;;;5038727;28;20230;-53
2023/02/27 01:46:37;;;;;;;4.13;2.37;;;0.40;1.00;;;;;;5039164;28;20199;-55
2023/02/27 01:49:20;;;;;;;3.33;2.60;;;0.40;1.00;;;;;;5039339;28;20468;-55
2023/02/27 01:52:07;;;;;;;3.07;2.30;;;0.30;1.00;;;;;;5043762;28;20977;-56
2023/02/27 01:54:39;;;;;;;8.20;2.30;;;0.30;1.00;;;;;;5046410;28;20822;-56
2023/02/27 01:57:06;;;;;;;3.67;2.50;;;0.30;1.00;;;;;;5047267;28;20469;-54
2023/02/27 01:59:34;;;;;;;11.37;4.90;;;0.30;1.00;;;;;;5040534;28;20446;-57
2023/02/27 02:02:06;;;;;;;7.57;4.40;;;0.30;1.00;;;;;;5058404;28;20504;-56
2023/02/27 02:04:35;;;;;;;6.70;4.30;;;0.30;1.00;;;;;;5047095;28;20446;-54
2023/02/27 02:07:06;;;;;;;5.20;4.00;;;0.20;1.00;;;;;;5046697;28;20452;-54
2023/02/27 02:09:36;;;;;;;11.23;4.57;;;0.20;1.00;;;;;;5043153;28;20452;-55
2023/02/27 02:12:03;;;;;;;5.30;3.33;;;0.10;1.00;;;;;;5042941;28;20438;-54
2023/02/27 02:14:29;;;;;;;6.53;4.00;;;0.10;1.00;;;;;;5045451;28;20479;-53
2023/02/27 02:17:12;;;;;;;3.57;3.27;;;0.10;1.00;;;;;;5047283;28;20879;-54
2023/02/27 02:19:47;;;;;;;5.50;2.83;;;0.10;1.00;;;;;;5046487;28;20228;-55
2023/02/27 02:22:30;;;;;;;3.20;2.33;;;0.10;1.00;;;;;;5044011;28;20814;-54
2023/02/27 02:25:27;;;;;;;2.57;2.20;;;0.10;1.00;;;;;;5044991;28;20460;-51
2023/02/27 02:28:02;;;;;;;4.73;2.73;;;0.00;1.00;;;;;;5044212;28;20504;-57
2023/02/27 02:31:02;;;;;;;1.97;1.77;;;0.00;1.00;;;;;;5044414;28;20603;-53
2023/02/27 02:33:34;;;;;;;3.47;2.20;;;0.00;1.00;;;;;;5045873;28;20451;-53
2023/02/27 02:36:16;;;;;;;4.20;2.20;;;0.00;1.00;;;;;;5045700;28;20446;-55
2023/02/27 02:38:49;;;;;;;4.20;2.73;;;0.00;1.00;;;;;;5046070;28;20526;-53
2023/02/27 02:41:31;;;;;;;3.53;3.00;;;-0.10;1.00;;;;;;5046085;28;20946;-52
2023/02/27 02:44:24;;;;;;;4.47;3.37;;;-0.10;1.00;;;;;;5047253;28;20459;-54
2023/02/27 02:47:02;;;;;;;3.13;2.63;;;-0.10;1.00;;;;;;5044949;28;20461;-55
2023/02/27 02:49:59;;;;;;;4.10;2.97;;;-0.10;1.00;;;;;;5044511;28;20440;-54
2023/02/27 02:52:50;;;;;;;4.40;2.03;;;-0.10;1.00;;;;;;5044168;28;20466;-53
2023/02/27 02:55:33;;;;;;;3.10;2.80;;;0.00;1.00;;;;;;5045380;28;20537;-55
2023/02/27 02:58:11;;;;;;;3.63;2.43;;;0.00;1.00;;;;;;5044076;28;20473;-53
2023/02/27 03:00:47;;;;;;;6.67;2.90;;;0.00;1.00;;;;;;5043895;28;20457;-55
2023/02/27 03:03:28;;;;;;;2.53;1.83;;;0.10;1.00;;;;;;5045736;28;20442;-53
2023/02/27 03:05:59;;;;;;;4.53;3.13;;;0.10;1.00;;;;;;5043620;28;20957;-53
2023/02/27 03:08:30;;;;;;;4.63;3.37;;;0.20;1.00;;;;;;5041871;28;20457;-54
2023/02/27 03:11:03;;;;;;;5.40;2.57;;;0.30;1.00;;;;;;5041801;28;20455;-54
2023/02/27 03:13:46;;;;;;;3.70;2.90;;;0.40;1.00;;;;;;5045010;28;21027;-53
2023/02/27 03:16:20;;;;;;;4.87;3.10;;;0.50;1.00;;;;;;5047412;28;20458;-55
2023/02/27 03:18:55;;;;;;;4.77;2.60;;;0.60;1.00;;;;;;5044572;28;20604;-53
2023/02/27 03:21:31;;;;;;;4.80;3.13;;;0.70;1.00;;;;;;5045106;28;20446;-55
2023/02/27 03:24:01;;;;;;;4.17;2.90;;;0.70;1.00;;;;;;5047140;28;20441;-53
2023/02/27 03:26:36;;;;;;;3.50;2.47;;;0.70;1.00;;;;;;5053057;28;20450;-51
2023/02/27 03:29:17;;;;;;;3.33;2.60;;;0.80;1.00;;;;;;5059549;28;20461;-56
2023/02/27 03:32:01;;;;;;;3.83;3.00;;;0.80;1.00;;;;;;5045447;28;20449;-54
2023/02/27 03:34:34;;;;;;;3.20;2.90;;;0.80;1.00;;;;;;5045522;28;20510;-53
2023/02/27 03:37:17;;;;;;;3.80;3.17;;;1.00;1.00;;;;;;5045928;28;20505;-54
2023/02/27 03:40:05;;;;;;;4.03;3.10;;;0.90;1.00;;;;;;5049341;28;21559;-53
2023/02/27 03:42:46;;;;;;;4.60;2.80;;;0.90;1.00;;;;;;5044899;28;20444;-55
2023/02/27 03:45:17;;;;;;;3.37;2.80;;;0.80;1.00;;;;;;5044731;28;20445;-56
2023/02/27 03:47:43;;;;;;;5.33;2.83;;;0.90;1.00;;;;;;5038290;28;20485;-53
2023/02/27 03:50:09;;;;;;;3.80;3.17;;;1.10;1.00;;;;;;5036607;28;20446;-55
2023/02/27 03:52:35;;;;;;;5.27;2.77;;;1.00;1.00;;;;;;5035435;28;20485;-55
2023/02/27 03:55:15;;;;;;;4.67;3.20;;;1.20;1.00;;;;;;5035110;28;20476;-56
2023/02/27 03:57:41;;;;;;;4.73;2.80;;;1.20;1.00;;;;;;5038472;28;20737;-56
2023/02/27 04:00:12;;;;;;;4.57;2.70;;;1.30;1.00;;;;;;5036648;28;20453;-54
2023/02/27 04:02:39;;;;;;;5.73;2.70;;;1.20;1.00;;;;;;5039165;28;20443;-55
2023/02/27 04:05:06;;;;;;;4.73;3.00;;;1.10;1.00;;;;;;5032869;28;20449;-55
2023/02/27 04:08:10;;;;;;;3.13;2.83;;;1.10;1.00;;;;;;5036691;28;20452;-55
2023/02/27 04:11:09;;;;;;;3.30;2.57;;;1.10;1.00;;;;;;4974950;28;20449;-52
2023/02/27 04:13:47;;;;;;;5.00;3.77;;;1.10;1.00;;;;;;4972570;28;20479;-53
2023/02/27 04:16:35;;;;;;;5.63;3.53;;;1.00;1.00;;;;;;5027131;28;20990;-53
2023/02/27 04:19:15;;;;;;;3.67;3.30;;;0.90;1.00;;;;;;5045261;28;20841;-54
2023/02/27 04:21:53;;;;;;;11.07;4.20;;;0.90;1.00;;;;;;5045092;28;20863;-55
2023/02/27 04:24:33;;;;;;;5.00;3.20;;;0.90;1.00;;;;;;5046652;28;20472;-55
2023/02/27 04:27:20;;;;;;;4.97;3.13;;;1.00;1.00;;;;;;5046305;28;20438;-54
2023/02/27 04:29:49;;;;;;;6.87;2.97;;;1.00;1.00;;;;;;5042221;28;20546;-54
2023/02/27 04:32:26;;;;;;;3.87;2.77;;;1.00;1.00;;;;;;5043098;28;20442;-54
2023/02/27 04:34:55;;;;;;;4.47;3.20;;;1.20;1.00;;;;;;5044864;28;21035;-53
2023/02/27 04:37:29;;;;;;;3.90;2.60;;;1.20;1.00;;;;;;5041250;28;20534;-54
2023/02/27 04:40:05;;;;;;;5.03;2.67;;;1.10;1.00;;;;;;5041660;28;20442;-54
2023/02/27 04:42:36;;;;;;;4.53;3.50;;;1.10;1.00;;;;;;5044977;28;20471;-53
2023/02/27 04:45:07;;;;;;;3.93;3.00;;;1.10;1.00;;;;;;5049093;28;20433;-54
2023/02/27 04:48:02;;;;;;;4.57;2.93;;;1.20;1.00;;;;;;5048046;28;20787;-57
2023/02/27 04:50:36;;;;;;;4.93;2.33;;;1.30;1.00;;;;;;5044490;28;20536;-53
2023/02/27 04:53:33;;;;;;;5.63;3.07;;;1.20;1.00;;;;;;5050424;28;20512;-53
2023/02/27 04:56:04;;;;;;;8.50;3.10;;;1.10;1.00;;;;;;5046844;28;21108;-52
2023/02/27 04:58:49;;;;;;;7.93;2.70;;;1.10;1.00;;;;;;5048632;28;20473;-52
2023/02/27 05:01:21;;;;;;;6.23;3.37;;;1.00;1.00;;;;;;5046395;28;20519;-54
2023/02/27 05:03:51;;;;;;;5.33;3.00;;;1.00;1.00;;;;;;5049663;28;20488;-52
2023/02/27 05:06:20;;;;;;;5.33;3.40;;;1.00;1.00;;;;;;5046571;28;20437;-55
2023/02/27 05:09:08;;;;;;;4.30;3.57;;;1.10;1.00;;;;;;5048220;28;20510;-52
2023/02/27 05:11:42;;;;;;;5.27;3.20;;;1.00;1.00;;;;;;5051889;28;20992;-54
2023/02/27 05:14:15;;;;;;;4.67;3.57;;;1.10;1.00;;;;;;5048800;28;20475;-51
2023/02/27 05:16:47;;;;;;;6.00;4.20;;;0.80;1.00;;;;;;5045477;28;20522;-55
2023/02/27 05:19:13;;;;;;;4.43;3.30;;;0.60;1.00;;;;;;5048022;28;20476;-55
2023/02/27 05:21:54;;;;;;;4.87;3.10;;;0.60;1.00;;;;;;5047764;28;20822;-53
2023/02/27 05:24:55;;;;;;;4.23;3.27;;;0.50;1.00;;;;;;5049086;28;20258;-55
2023/02/27 05:27:27;;;;;;;8.27;4.43;;;0.40;1.00;;;;;;5051655;28;20503;-54
2023/02/27 05:30:33;;;;;;;5.20;3.77;;;0.40;1.00;;;;;;5052788;28;20537;-51
2023/02/27 05:33:14;;;;;;;4.50;2.83;;;0.60;1.00;;;;;;5035552;28;21008;-53
2023/02/27 05:35:56;;;;;;;5.37;3.03;;;0.60;1.00;;;;;;5049919;28;20500;-52
2023/02/27 05:38:33;;;;;;;4.83;2.80;;;0.70;1.00;;;;;;5048357;28;20690;-56
2023/02/27 05:41:12;;;;;;;5.33;3.43;;;0.80;1.00;;;;;;5049592;28;20444;-57
2023/02/27 05:43:49;;;;;;;6.83;3.13;;;0.80;1.00;;;;;;5059111;28;20438;-54
2023/02/27 05:46:23;;;;;;;4.93;3.60;;;0.80;1.00;;;;;;5049673;28;20527;-54
2023/02/27 05:49:14;;;;;;;5.53;4.43;;;0.90;1.00;;;;;;5047316;28;20450;-54
2023/02/27 05:51:44;;;;;;;3.87;3.03;;;0.90;1.00;;;;;;5051513;28;20958;-54
2023/02/27 05:54:31;;;;;;;3.27;2.83;;;0.90;1.00;;;;;;5052557;28;20523;-57
2023/02/27 05:56:58;;;;;;;5.60;3.50;;;1.10;1.00;;;;;;5050875;28;20448;-52
2023/02/27 05:59:38;;;;;;;4.50;2.63;;;1.20;1.00;;;;;;5054250;28;20442;-54
2023/02/27 06:02:04;;;;;;;2.93;2.37;;;1.10;1.00;;;;;;5047410;28;20476;-52
2023/02/27 06:04:30;;;;;;;5.73;3.20;;;1.10;1.00;;;;;;5047750;28;20516;-53
2023/02/27 06:06:56;;;;;;;2.93;2.73;;;1.10;1.00;;;;;;5047544;28;20460;-52
2023/02/27 06:09:22;;;;;;;4.67;3.10;;;1.00;1.00;;;;;;5050048;28;20273;-52
2023/02/27 06:11:47;;;;;;;3.60;3.10;;;1.10;1.00;;;;;;5058720;28;20529;-55
2023/02/27 06:14:13;;;;;;;4.33;3.40;;;1.00;1.00;;;;;;5048937;28;20192;-54
2023/02/27 06:16:39;;;;;;;5.37;3.50;;;1.10;1.00;;;;;;5050200;28;20239;-52
2023/02/27 06:19:05;;;;;;;5.57;3.00;;;1.10;1.00;;;;;;5048110;28;20221;-53
2023/02/27 06:21:31;;;;;;;4.00;3.10;;;2.50;1.00;;;;;;5045048;28;20257;-54
2023/02/27 06:23:56;;;;;;;3.73;3.23;;;1.50;1.00;;;;;;5047705;28;20596;-53
2023/02/27 06:26:22;;;;;;;7.10;3.20;;;1.60;1.00;;;;;;5047481;28;20449;-55
2023/02/27 06:28:48;;;;;;;3.33;2.70;;;1.60;1.00;;;;;;5047165;28;20187;-55
2023/02/27 06:31:14;;;;;;;6.90;3.73;;;1.60;1.00;;;;;;5046402;28;20443;-54
2023/02/27 06:33:40;;;;;;;5.50;3.37;;;1.50;1.00;;;;;;5049421;28;20508;-54
2023/02/27 06:36:06;;;;;;;7.00;3.40;;;1.60;1.00;;;;;;5054934;28;20404;-58
2023/02/27 06:38:32;;;;;;;8.90;3.60;;;1.60;1.00;;;;;;5051272;28;20319;-53
2023/02/27 06:40:58;;;;;;;4.13;3.37;;;1.70;1.00;;;;;;5063782;28;20819;-54
2023/02/27 06:43:24;;;;;;;5.73;3.27;;;1.80;1.00;;;;;;5053698;28;20443;-55
2023/02/27 06:45:52;;;;;;;4.73;4.20;;;1.90;1.00;;;;;;5051667;28;20183;-55
2023/02/27 06:48:18;;;;;;;6.47;4.00;;;2.00;1.00;;;;;;5048279;28;20753;-55
2023/02/27 06:50:43;;;;;;;7.50;3.90;;;1.90;1.00;;;;;;5047415;28;20529;-53
2023/02/27 06:53:09;;;;;;;6.70;4.00;;;1.90;1.00;;;;;;5046422;28;20690;-54
2023/02/27 06:55:35;;;;;;;7.90;4.30;;;2.10;1.00;;;;;;5048563;28;20194;-53
2023/02/27 06:58:00;;;;;;;4.40;3.30;;;2.10;1.00;;;;;;5047756;28;20308;-54
2023/02/27 07:00:26;;;;;;;7.40;3.90;;;2.10;1.00;;;;;;5049723;28;20199;-57
2023/02/27 07:02:51;;;;;;;6.87;4.10;;;2.00;1.00;;;;;;5047989;28;20187;-55
2023/02/27 07:05:17;;;;;;;3.90;3.50;;;2.10;1.00;;;;;;5046752;28;20262;-53
2023/02/27 07:07:43;;;;;;;4.97;3.87;;;2.00;1.00;;;;;;5047846;28;20215;-54
2023/02/27 07:10:12;;;;;;;6.50;4.10;;;2.00;1.00;;;;;;5049844;28;20188;-52
2023/02/27 07:12:39;;;;;;;5.77;3.60;;;2.00;1.00;;;;;;5064672;28;20249;-53
2023/02/27 07:15:05;;;;;;;7.30;3.47;;;2.10;1.00;;;;;;5050357;28;20544;-54
2023/02/27 07:17:31;;;;;;;5.27;3.90;;;2.20;1.00;;;;;;5048049;28;20503;-52
2023/02/27 07:19:56;;;;;;;7.20;4.40;;;2.30;1.00;;;;;;5046570;28;20497;-55
2023/02/27 07:22:22;;;;;;;7.10;4.37;;;2.30;1.00;;;;;;5049382;28;20248;-54
2023/02/27 07:24:48;;;;;;;4.87;3.83;;;2.40;1.00;;;;;;5054591;28;20182;-54
2023/02/27 07:27:13;;;;;;;5.40;4.23;;;2.40;1.00;;;;;;5049015;28;20218;-57
2023/02/27 07:29:39;;;;;;;8.40;5.00;;;2.50;1.00;;;;;;5047393;28;20207;-56
2023/02/27 07:32:04;;;;;;;7.30;4.80;;;2.50;1.00;;;;;;5046616;28;20176;-56
2023/02/27 07:34:30;;;;;;;3.37;2.93;;;2.40;1.00;;;;;;5046170;28;20559;-56
2023/02/27 07:36:56;;;;;;;6.40;4.20;;;2.40;1.00;;;;;;5047912;28;20187;-57
2023/02/27 07:39:22;;;;;;;3.57;2.87;;;2.40;1.00;;;;;;5047647;28;20216;-52
2023/02/27 07:41:47;;;;;;;5.43;3.40;;;2.60;1.00;;;;;;5045829;28;20564;-56
2023/02/27 07:44:13;;;;;;;4.90;3.63;;;2.60;1.00;;;;;;5048020;28;20448;-54
2023/02/27 07:46:39;;;;;;;9.97;4.00;;;2.60;1.00;;;;;;5047165;28;20260;-55
2023/02/27 07:49:04;;;;;;;5.53;3.70;;;2.70;1.00;;;;;;5048703;28;20246;-54
2023/02/27 07:51:30;;;;;;;3.67;3.37;;;2.80;1.00;;;;;;5048613;28;20211;-55
2023/02/27 07:53:57;;;;;;;6.53;3.47;;;2.90;1.00;;;;;;5052808;28;20227;-52
2023/02/27 07:56:23;;;;;;;6.80;4.10;;;2.80;1.00;;;;;;5068573;28;20282;-56
2023/02/27 07:58:49;;;;;;;9.70;4.67;;;2.80;1.00;;;;;;5068568;28;20799;-55
2023/02/27 08:01:15;;;;;;;4.80;4.30;;;2.90;1.00;;;;;;5050533;28;20465;-54
2023/02/27 08:03:40;;;;;;;5.73;3.80;;;2.90;1.00;;;;;;5059935;28;20244;-54
2023/02/27 08:06:06;;;;;;;9.03;5.13;;;2.80;1.00;;;;;;5052157;28;20191;-55
2023/02/27 08:08:32;;;;;;;7.97;4.53;;;2.90;1.00;;;;;;5050839;28;20195;-55
2023/02/27 08:10:57;;;;;;;6.10;4.23;;;2.90;1.00;;;;;;5051667;28;20506;-53
2023/02/27 08:13:23;;;;;;;6.23;5.07;;;2.90;1.00;;;;;;5052762;28;20185;-54
2023/02/27 08:15:49;;;;;;;14.03;9.23;;;3.00;1.00;;;;;;5052740;28;20203;-55
2023/02/27 08:18:14;;;;;;;8.10;5.30;;;2.90;1.00;;;;;;5052814;28;20824;-56
2023/02/27 08:20:40;;;;;;;4.90;3.80;;;3.10;1.00;;;;;;5061600;28;20187;-55
2023/02/27 08:23:06;;;;;;;5.63;4.33;;;3.10;1.00;;;;;;5072531;28;20182;-52
2023/02/27 08:25:32;;;;;;;5.53;4.20;;;3.10;1.00;;;;;;5069740;28;20267;-53
2023/02/27 08:27:57;;;;;;;4.03;3.53;;;3.40;1.00;;;;;;5052473;28;20657;-52
2023/02/27 08:30:23;;;;;;;7.03;4.20;;;3.70;1.00;;;;;;5052359;28;20446;-54
2023/02/27 08:32:49;;;;;;;4.70;4.17;;;3.50;1.00;;;;;;5051796;28;20514;-53
2023/02/27 08:35:14;;;;;;;9.07;5.57;;;3.50;1.00;;;;;;5071600;28;20590;-54
2023/02/27 08:37:40;;;;;;;11.40;5.10;;;3.90;1.00;;;;;;5072344;28;20640;-56
2023/02/27 08:40:07;;;;;;;7.03;4.57;;;4.10;1.00;;;;;;5058989;28;20181;-55
2023/02/27 08:42:33;;;;;;;6.13;4.53;;;4.30;1.00;;;;;;5051809;28;20553;-52
2023/02/27 08:44:59;;;;;;;8.50;5.27;;;4.40;1.00;;;;;;5052070;28;20449;-55
2023/02/27 08:47:25;;;;;;;5.27;4.77;;;4.40;1.00;;;;;;5051997;28;20427;-52
2023/02/27 08:49:50;;;;;;;10.87;5.20;;;4.20;1.00;;;;;;5052246;28;20881;-53
2023/02/27 08:52:16;;;;;;;5.60;5.00;;;4.20;1.00;;;;;;5066626;28;20219;-55
2023/02/27 08:54:42;;;;;;;8.50;5.00;;;4.30;1.00;;;;;;5040389;28;20196;-53
2023/02/27 08:57:07;;;;;;;6.27;4.53;;;4.10;1.00;;;;;;5049751;28;20734;-54
2023/02/27 08:59:33;;;;;;;8.77;5.23;;;4.10;1.00;;;;;;5051269;28;20195;-55
2023/02/27 09:01:59;;;;;;;5.30;4.40;;;4.20;1.00;;;;;;5049542;28;20284;-57
2023/02/27 09:04:25;;;;;;;8.83;4.40;;;4.20;1.00;;;;;;5048876;28;20445;-54
2023/02/27 09:06:52;;;;;;;9.87;5.77;;;4.30;1.00;;;;;;5051521;28;20196;-51
2023/02/27 09:09:18;;;;;;;6.33;4.67;;;4.40;1.00;;;;;;5045447;28;20435;-52
2023/02/27 09:11:45;;;;;;;8.70;5.03;;;4.30;1.00;;;;;;5057540;28;20976;-55
2023/02/27 09:14:11;;;;;;;7.60;5.30;;;4.40;1.00;;;;;;5053925;28;20187;-54
2023/02/27 09:16:37;;;;;;;8.20;5.30;;;4.50;1.00;;;;;;5048927;28;20474;-53
2023/02/27 09:19:03;;;;;;;9.00;4.77;;;4.60;1.00;;;;;;5047543;28;20570;-53
2023/02/27 09:21:29;;;;;;;6.27;4.17;;;4.60;1.00;;;;;;5044186;28;22256;-54
2023/02/27 09:23:57;;;;;;;9.10;5.50;;;4.60;1.00;;;;;;5056014;28;20449;-54
2023/02/27 09:26:23;;;;;;;3.63;3.27;;;4.80;1.00;;;;;;5052447;28;20624;-52
2023/02/27 09:28:49;;;;;;;3.80;3.07;;;4.80;1.00;;;;;;5053566;28;20439;-54
2023/02/27 09:31:16;;;;;;;4.30;3.20;;;4.60;1.00;;;;;;5057573;28;20445;-54
2023/02/27 09:33:41;;;;;;;4.10;2.70;;;4.90;1.00;;;;;;5049144;28;20447;-54
2023/02/27 09:36:07;;;;;;;3.77;3.37;;;5.00;1.00;;;;;;5046328;28;20453;-55
2023/02/27 09:38:34;;;;;;;5.00;3.27;;;5.20;1.00;;;;;;5044492;28;20476;-53
2023/02/27 09:41:00;;;;;;;4.37;2.90;;;5.00;1.00;;;;;;5055595;28;20512;-54
2023/02/27 09:43:42;;;;;;;6.57;3.60;;;5.20;1.00;;;;;;5049167;28;20950;-52
2023/02/27 09:46:15;;;;;;;2.70;2.17;;;5.70;1.00;;;;;;5049048;28;20966;-51
2023/02/27 09:48:54;;;;;;;13.83;8.73;;;5.90;1.00;;;;;;5061134;28;22277;-56
2023/02/27 09:51:21;;;;;;;4.23;3.23;;;6.10;1.00;;;;;;5044837;28;20451;-53
2023/02/27 09:53:54;;;;;;;4.90;3.97;;;6.10;1.00;;;;;;5045075;28;20529;-54
2023/02/27 09:56:27;;;;;;;4.67;2.93;;;6.00;1.00;;;;;;5046886;28;20462;-54
2023/02/27 09:59:23;;;;;;;3.97;2.60;;;6.10;1.00;;;;;;5048341;28;20466;-53
2023/02/27 10:02:16;;;;;;;3.20;2.83;;;6.30;1.00;;;;;;5047292;28;20566;-53
2023/02/27 10:04:56;;;;;;;2.80;2.13;;;6.20;1.00;;;;;;5056122;28;20439;-53
2023/02/27 10:07:43;;;;;;;2.80;2.50;;;6.10;1.00;;;;;;5047813;28;20438;-53
2023/02/27 10:10:27;;;;;;;3.30;2.97;;;6.00;1.00;;;;;;5050034;28;20453;-55
2023/02/27 10:12:56;;;;;;;3.40;2.30;;;6.10;1.00;;;;;;5061546;28;20520;-53
2023/02/27 10:15:37;;;;;;;6.83;5.40;;;6.40;1.00;;;;;;5049538;28;20814;-53
2023/02/27 10:18:09;;;;;;;4.17;3.40;;;6.90;1.00;;;;;;5048443;28;20554;-54
2023/02/27 10:20:41;;;;;;;7.03;3.90;;;6.90;1.00;;;;;;5043204;28;20447;-52
2023/02/27 10:23:16;;;;;;;6.37;2.90;;;6.50;1.00;;;;;;5044812;28;20529;-53
2023/02/27 10:25:48;;;;;;;4.33;2.30;;;6.30;1.00;;;;;;5045849;28;20443;-53
2023/02/27 10:28:17;;;;;;;2.33;1.87;;;6.30;1.00;;;;;;5047346;28;20533;-52
2023/02/27 10:30:53;;;;;;;3.10;2.30;;;6.10;1.00;;;;;;5046955;28;20474;-54
2023/02/27 10:33:41;;;;;;;4.20;2.80;;;6.10;1.00;;;;;;5045329;28;20534;-55
2023/02/27 10:36:10;;;;;;;3.33;2.13;;;5.70;1.00;;;;;;5046863;28;20457;-53
2023/02/27 10:38:46;;;;;;;4.37;2.30;;;5.70;1.00;;;;;;5048946;28;20501;-54
2023/02/27 10:41:14;;;;;;;2.90;2.27;;;5.70;1.00;;;;;;5046772;28;20460;-62
2023/02/27 10:43:41;;;;;;;3.20;2.40;;;5.50;1.00;;;;;;5045764;28;20449;-62
2023/02/27 10:46:24;;;;;;;4.27;2.80;;;5.50;1.00;;;;;;5053092;28;20490;-52
2023/02/27 10:48:50;;;;;;;7.10;3.13;;;5.70;1.00;;;;;;5062376;28;20890;-52
2023/02/27 10:51:22;;;;;;;4.47;2.97;;;5.80;1.00;;;;;;5049707;28;20475;-54
2023/02/27 10:53:51;;;;;;;4.90;2.80;;;5.70;1.00;;;;;;5056759;28;21046;-56
2023/02/27 10:56:25;;;;;;;12.73;4.23;;;5.50;1.00;;;;;;5050749;28;20453;-53
2023/02/27 10:59:04;;;;;;;14.13;3.73;;;5.80;1.00;;;;;;5046099;28;20527;-55
2023/02/27 11:01:54;;;;;;;3.67;2.87;;;6.10;1.00;;;;;;5046818;28;20438;-55
2023/02/27 11:04:28;;;;;;;3.30;2.97;;;6.40;1.00;;;;;;5044362;28;20448;-54
2023/02/27 11:06:54;;;;;;;4.00;2.90;;;6.50;1.00;;;;;;5047945;28;20450;-53
2023/02/27 11:09:28;;;;;;;4.00;3.10;;;6.70;1.00;;;;;;5064122;28;21750;-54
2023/02/27 11:12:08;;;;;;;5.17;2.90;;;6.60;1.00;;;;;;5044416;28;20513;-55
2023/02/27 11:14:34;;;;;;;3.23;2.90;;;6.70;1.00;;;;;;5045098;28;20451;-54
2023/02/27 11:17:01;;;;;;;3.33;3.00;;;6.80;1.00;;;;;;5052774;28;20508;-55
2023/02/27 11:19:32;;;;;;;2.50;2.30;;;6.50;1.00;;;;;;5044894;28;20219;-56
2023/02/27 11:22:17;;;;;;;7.63;3.03;;;6.20;1.00;;;;;;5046865;28;20451;-54
2023/02/27 11:24:43;;;;;;;4.80;2.93;;;6.40;1.00;;;;;;5046275;28;20460;-54
2023/02/27 11:27:28;;;;;;;4.73;3.20;;;6.60;1.00;;;;;;5054959;28;20425;-54
2023/02/27 11:30:04;;;;;;;6.60;4.00;;;6.30;1.00;;;;;;5052448;28;20420;-52
2023/02/27 11:32:51;;;;;;;6.07;2.80;;;6.30;1.00;;;;;;5052429;28;20478;-55
2023/02/27 11:35:30;;;;;;;2.33;2.10;;;6.60;1.00;;;;;;5055743;28;20489;-54
2023/02/27 11:38:00;;;;;;;3.80;2.87;;;6.90;1.00;;;;;;5047811;28;20474;-54
2023/02/27 11:40:31;;;;;;;3.43;2.40;;;6.80;1.00;;;;;;5045809;28;20457;-54
2023/02/27 11:43:17;;;;;;;3.20;2.90;;;6.90;1.00;;;;;;5055024;28;20936;-55
2023/02/27 11:45:50;;;;;;;6.30;3.80;;;6.60;1.00;;;;;;5050178;28;20435;-54
2023/02/27 11:48:33;;;;;;;4.13;2.70;;;6.60;1.00;;;;;;5049088;28;20880;-53
2023/02/27 11:51:10;;;;;;;6.33;2.30;;;6.50;1.00;;;;;;5058358;28;21220;-52
2023/02/27 11:54:00;;;;;;;2.27;2.13;;;6.70;1.00;;;;;;5056962;28;21008;-55
2023/02/27 11:56:32;;;;;;;5.50;2.20;;;7.00;1.00;;;;;;5049060;28;20431;-54
2023/02/27 11:59:18;;;;;;;3.00;2.70;;;6.90;1.00;;;;;;5056572;28;20480;-55
2023/02/27 12:02:00;;;;;;;3.27;2.97;;;7.00;1.00;;;;;;5036261;28;20438;-54
2023/02/27 12:04:41;;;;;;;3.80;2.73;;;7.10;1.00;;;;;;5048011;28;20770;-52
2023/02/27 12:07:39;;;;;;;3.60;2.90;;;7.20;1.00;;;;;;5047720;28;20442;-53
2023/02/27 12:10:17;;;;;;;5.37;2.57;;;7.10;1.00;;;;;;5047945;28;20438;-52
2023/02/27 12:12:58;;;;;;;3.30;2.53;;;7.40;1.00;;;;;;5048771;28;20496;-54
2023/02/27 12:15:44;;;;;;;2.30;2.13;;;7.50;1.00;;;;;;5054941;28;20441;-53
2023/02/27 12:18:37;;;;;;;3.30;2.97;;;7.60;1.00;;;;;;5052700;28;21081;-56
2023/02/27 12:21:16;;;;;;;4.60;2.30;;;7.80;1.00;;;;;;5045968;28;20462;-55
2023/02/27 12:24:14;;;;;;;3.60;2.20;;;8.20;1.00;;;;;;5063803;28;20938;-52
2023/02/27 12:26:47;;;;;;;5.33;2.20;;;8.40;1.00;;;;;;5048374;28;20465;-55
2023/02/27 12:29:33;;;;;;;2.93;1.77;;;8.20;1.00;;;;;;5057395;28;20788;-54
2023/02/27 12:32:01;;;;;;;3.50;2.13;;;8.10;1.00;;;;;;5046546;28;20435;-56
2023/02/27 12:34:33;;;;;;;3.17;2.40;;;7.90;1.00;;;;;;5058549;28;20967;-54
2023/02/27 12:37:07;;;;;;;1.30;1.20;;;8.00;1.00;;;;;;5053015;28;20456;-54
2023/02/27 12:39:33;;;;;;;4.47;2.33;;;7.60;1.00;;;;;;5063448;28;20469;-54
2023/02/27 12:42:05;;;;;;;2.40;2.20;;;7.30;1.00;;;;;;5047336;28;20443;-54
2023/02/27 12:44:43;;;;;;;3.00;1.77;;;6.80;1.00;;;;;;5064908;28;20488;-53
2023/02/27 12:47:20;;;;;;;3.03;1.80;;;6.70;1.00;;;;;;5055798;28;20838;-53
2023/02/27 12:50:16;;;;;;;5.77;3.30;;;6.80;1.00;;;;;;5050538;28;20438;-53
2023/02/27 12:52:47;;;;;;;1.90;1.70;;;7.00;1.00;;;;;;5049946;28;20488;-53
2023/02/27 12:55:19;;;;;;;2.80;1.80;;;7.20;1.00;;;;;;5067873;28;20434;-54
2023/02/27 12:58:15;;;;;;;2.00;1.80;;;7.30;1.00;;;;;;5066023;28;20497;-51
2023/02/27 13:00:43;;;;;;;1.87;1.60;;;7.00;1.00;;;;;;5053418;28;21006;-52
2023/02/27 13:03:15;;;;;;;5.43;3.87;;;6.80;1.00;;;;;;5062540;28;20947;-55
2023/02/27 13:05:58;;;;;;;3.43;1.83;;;6.60;1.00;;;;;;5050538;28;20457;-55
2023/02/27 13:08:47;;;;;;;3.90;2.13;;;7.00;1.00;;;;;;5051645;28;20484;-57
2023/02/27 13:11:42;;;;;;;2.73;1.50;;;7.20;1.00;;;;;;5050449;28;20447;-54
2023/02/27 13:14:24;;;;;;;2.00;1.47;;;6.80;1.00;;;;;;5050655;28;20461;-57
2023/02/27 13:16:59;;;;;;;2.70;1.63;;;6.80;1.00;;;;;;5050494;28;20823;-54
2023/02/27 13:19:51;;;;;;;4.00;1.33;;;6.80;1.00;;;;;;5054858;28;20534;-55
2023/02/27 13:22:35;;;;;;;1.23;1.13;;;6.70;1.00;;;;;;5053510;28;21433;-54
2023/02/27 13:25:07;;;;;;;1.73;1.10;;;6.80;1.00;;;;;;5052410;28;20894;-54
2023/02/27 13:27:42;;;;;;;1.00;0.97;;;6.90;1.00;;;;;;5060857;28;20536;-53
2023/02/27 13:30:22;;;;;;;4.87;1.57;;;6.70;1.00;;;;;;5054870;28;20477;-53
2023/02/27 13:32:51;;;;;;;1.43;1.10;;;6.70;1.00;;;;;;5050485;28;20554;-53
2023/02/27 13:35:42;;;;;;;2.40;1.40;;;6.60;1.00;;;;;;5054804;28;20461;-55
2023/02/27 13:38:32;;;;;;;9.50;1.40;;;6.50;1.00;;;;;;5055626;28;20475;-54